createdAt,value
2018-04-09T00:00:48.581Z,91.37
2018-04-09T00:01:54.929Z,91.45
2018-04-09T00:03:01.572Z,91.45
2018-04-09T00:04:07.874Z,90.83
2018-04-09T00:05:16.358Z,90.69
2018-04-09T00:06:25.011Z,90.99
2018-04-09T00:07:31.750Z,91.05
2018-04-09T00:08:42.962Z,90.95
2018-04-09T00:09:52.835Z,91.66
2018-04-09T00:10:58.843Z,91.30
2018-04-09T00:12:04.793Z,90.79
2018-04-09T00:13:11.017Z,90.69
2018-04-09T00:14:17.261Z,91.49
2018-04-09T00:15:23.530Z,91.36
2018-04-09T00:16:30.717Z,90.56
2018-04-09T00:17:37.010Z,90.07
2018-04-09T00:18:43.319Z,89.81
2018-04-09T00:19:49.632Z,89.71
2018-04-09T00:20:57.939Z,91.31
2018-04-09T00:22:04.094Z,90.72
2018-04-09T00:23:10.387Z,89.92
2018-04-09T00:24:16.639Z,90.62
2018-04-09T00:25:23.928Z,90.88
2018-04-09T00:26:30.131Z,92.52
2018-04-09T00:27:36.344Z,91.75
2018-04-09T00:28:42.936Z,91.31
2018-04-09T00:29:49.115Z,91.41
2018-04-09T00:30:55.413Z,91.71
2018-04-09T00:32:01.756Z,91.66
2018-04-09T00:33:07.771Z,91.59
2018-04-09T00:34:14.043Z,91.49
2018-04-09T00:35:20.335Z,90.91
2018-04-09T00:36:31.897Z,91.58
2018-04-09T00:37:38.629Z,92.03
2018-04-09T00:38:44.655Z,91.72
2018-04-09T00:39:50.929Z,91.27
2018-04-09T00:40:57.252Z,91.12
2018-04-09T00:42:04.078Z,90.93
2018-04-09T00:43:10.354Z,90.47
2018-04-09T00:44:16.721Z,90.39
2018-04-09T00:45:23.013Z,90.76
2018-04-09T00:46:29.275Z,90.57
2018-04-09T00:47:35.465Z,90.71
2018-04-09T00:48:43.717Z,90.63
2018-04-09T00:49:49.904Z,91.54
2018-04-09T00:50:55.926Z,91.61
2018-04-09T00:52:02.564Z,90.68
2018-04-09T00:53:09.568Z,90.49
2018-04-09T00:54:15.812Z,90.12
2018-04-09T00:55:22.105Z,90.65
2018-04-09T00:56:27.391Z,92.05
2018-04-09T00:57:33.640Z,91.94
2018-04-09T00:58:40.748Z,91.68
2018-04-09T00:59:47.133Z,91.24
2018-04-09T01:00:53.334Z,91.56
2018-04-09T01:01:58.557Z,91.25
2018-04-09T01:03:04.445Z,90.40
2018-04-09T01:04:11.661Z,89.50
2018-04-09T01:05:17.324Z,89.86
2018-04-09T01:06:23.342Z,89.78
2018-04-09T01:07:29.942Z,89.55
2018-04-09T01:08:36.515Z,89.35
2018-04-09T01:09:42.873Z,89.58
2018-04-09T01:10:48.872Z,90.84
2018-04-09T01:11:55.210Z,90.65
2018-04-09T01:13:01.474Z,90.27
2018-04-09T01:14:07.853Z,90.22
2018-04-09T01:15:13.844Z,89.92
2018-04-09T01:16:20.108Z,89.75
2018-04-09T01:17:26.135Z,89.75
2018-04-09T01:18:33.240Z,89.98
2018-04-09T01:19:40.153Z,90.49
2018-04-09T01:20:46.424Z,91.16
2018-04-09T01:21:52.679Z,91.82
2018-04-09T01:22:58.904Z,91.71
2018-04-09T01:24:04.760Z,92.78
2018-04-09T01:25:10.979Z,93.17
2018-04-09T01:26:17.769Z,94.82
2018-04-09T01:27:24.039Z,94.14
2018-04-09T01:28:31.980Z,95.98
2018-04-09T01:29:38.138Z,96.10
2018-04-09T01:30:45.264Z,95.75
2018-04-09T01:31:51.651Z,95.74
2018-04-09T01:32:57.917Z,95.63
2018-04-09T01:34:04.168Z,94.30
2018-04-09T01:35:10.385Z,94.25
2018-04-09T01:36:16.933Z,94.32
2018-04-09T01:37:23.328Z,94.54
2018-04-09T01:38:30.535Z,94.29
2018-04-09T01:39:37.599Z,93.35
2018-04-09T01:40:43.895Z,92.71
2018-04-09T01:41:50.120Z,92.55
2018-04-09T01:42:56.566Z,92.93
2018-04-09T01:44:05.839Z,92.89
2018-04-09T01:45:13.332Z,92.61
2018-04-09T01:46:19.580Z,92.21
2018-04-09T01:47:25.853Z,92.05
2018-04-09T01:48:32.143Z,91.44
2018-04-09T01:49:38.367Z,91.12
2018-04-09T01:50:44.568Z,91.06
2018-04-09T01:51:50.803Z,91.03
2018-04-09T01:52:57.100Z,91.01
2018-04-09T01:54:03.299Z,91.37
2018-04-09T01:55:09.608Z,91.46
2018-04-09T01:56:16.469Z,91.59
2018-04-09T01:57:22.818Z,91.91
2018-04-09T01:58:33.143Z,91.91
2018-04-09T01:59:41.950Z,91.99
2018-04-09T02:00:48.178Z,91.79
2018-04-09T02:01:54.459Z,91.64
2018-04-09T02:03:01.324Z,91.36
2018-04-09T02:04:07.581Z,91.18
2018-04-09T02:05:13.791Z,91.12
2018-04-09T02:06:20.039Z,90.89
2018-04-09T02:07:26.288Z,90.47
2018-04-09T02:08:32.516Z,90.80
2018-04-09T02:09:38.723Z,91.91
2018-04-09T02:10:44.739Z,91.75
2018-04-09T02:11:51.953Z,91.25
2018-04-09T02:12:58.195Z,91.52
2018-04-09T02:14:04.393Z,91.43
2018-04-09T02:15:18.922Z,91.32
2018-04-09T02:16:25.181Z,91.40
2018-04-09T02:17:31.428Z,91.50
2018-04-09T02:18:38.247Z,91.37
2018-04-09T02:19:44.452Z,91.59
2018-04-09T02:20:50.712Z,91.72
2018-04-09T02:21:57.813Z,91.08
2018-04-09T02:23:04.098Z,91.21
2018-04-09T02:24:10.308Z,91.11
2018-04-09T02:25:16.784Z,91.03
2018-04-09T02:26:23.128Z,91.67
2018-04-09T02:27:30.410Z,92.04
2018-04-09T02:28:37.811Z,91.94
2018-04-09T02:29:49.347Z,91.20
2018-04-09T02:30:55.638Z,90.95
2018-04-09T02:32:01.994Z,90.74
2018-04-09T02:33:08.277Z,90.90
2018-04-09T02:34:14.565Z,90.91
2018-04-09T02:35:20.573Z,91.65
2018-04-09T02:36:26.859Z,92.06
2018-04-09T02:37:32.835Z,92.09
2018-04-09T02:38:39.006Z,92.17
2018-04-09T02:39:45.197Z,91.92
2018-04-09T02:40:51.427Z,91.46
2018-04-09T02:41:57.666Z,91.06
2018-04-09T02:43:09.818Z,91.26
2018-04-09T02:44:16.115Z,91.28
2018-04-09T02:45:22.720Z,91.25
2018-04-09T02:46:29.186Z,92.06
2018-04-09T02:47:35.478Z,91.98
2018-04-09T02:48:41.953Z,91.47
2018-04-09T02:49:48.160Z,91.51
2018-04-09T02:50:54.392Z,92.56
2018-04-09T02:52:00.803Z,93.05
2018-04-09T02:53:07.324Z,92.97
2018-04-09T02:54:13.633Z,92.70
2018-04-09T02:55:19.915Z,93.69
2018-04-09T02:56:26.128Z,95.24
2018-04-09T02:57:32.373Z,95.98
2018-04-09T02:58:38.849Z,95.87
2018-04-09T02:59:45.081Z,96.02
2018-04-09T03:00:50.701Z,95.67
2018-04-09T03:01:58.337Z,95.18
2018-04-09T03:03:04.968Z,95.29
2018-04-09T03:04:10.997Z,95.05
2018-04-09T03:05:17.102Z,95.07
2018-04-09T03:06:22.807Z,94.46
2018-04-09T03:07:29.452Z,94.81
2018-04-09T03:08:35.704Z,94.68
2018-04-09T03:09:41.989Z,93.92
2018-04-09T03:10:48.370Z,93.23
2018-04-09T03:11:54.416Z,93.17
2018-04-09T03:13:01.252Z,93.05
2018-04-09T03:14:13.454Z,93.50
2018-04-09T03:15:19.657Z,94.19
2018-04-09T03:16:25.880Z,95.13
2018-04-09T03:17:38.007Z,95.11
2018-04-09T03:18:47.510Z,95.14
2018-04-09T03:19:53.728Z,95.89
2018-04-09T03:20:59.936Z,95.24
2018-04-09T03:22:06.221Z,94.78
2018-04-09T03:23:12.471Z,94.54
2018-04-09T03:24:18.748Z,94.21
2018-04-09T03:25:25.079Z,94.64
2018-04-09T03:26:32.991Z,95.03
2018-04-09T03:27:39.346Z,94.39
2018-04-09T03:28:45.692Z,94.50
2018-04-09T03:29:51.880Z,93.94
2018-04-09T03:30:58.181Z,94.55
2018-04-09T03:32:05.283Z,94.29
2018-04-09T03:33:13.758Z,94.05
2018-04-09T03:34:21.300Z,93.53
2018-04-09T03:35:27.590Z,93.64
2018-04-09T03:36:33.812Z,92.75
2018-04-09T03:37:40.027Z,91.96
2018-04-09T03:38:46.286Z,92.21
2018-04-09T03:39:52.564Z,92.71
2018-04-09T03:40:58.878Z,93.04
2018-04-09T03:42:05.211Z,93.18
2018-04-09T03:43:11.541Z,93.73
2018-04-09T03:44:18.117Z,93.82
2018-04-09T03:45:24.357Z,93.83
2018-04-09T03:46:30.650Z,94.20
2018-04-09T03:47:37.355Z,93.54
2018-04-09T03:48:46.568Z,92.28
2018-04-09T03:49:53.874Z,92.13
2018-04-09T03:51:00.239Z,91.77
2018-04-09T03:52:06.465Z,91.84
2018-04-09T03:53:12.783Z,92.72
2018-04-09T03:54:19.132Z,92.60
2018-04-09T03:55:25.614Z,92.26
2018-04-09T03:56:31.916Z,92.59
2018-04-09T03:57:39.459Z,92.34
2018-04-09T03:58:45.700Z,93.20
2018-04-09T03:59:51.986Z,92.77
2018-04-09T04:00:57.956Z,92.85
2018-04-09T04:02:04.084Z,91.98
2018-04-09T04:03:10.316Z,91.92
2018-04-09T04:04:18.863Z,92.25
2018-04-09T04:05:27.168Z,92.04
2018-04-09T04:06:33.650Z,92.74
2018-04-09T04:07:40.077Z,93.03
2018-04-09T04:08:46.311Z,92.54
2018-04-09T04:09:52.604Z,91.84
2018-04-09T04:10:58.687Z,92.22
2018-04-09T04:12:04.941Z,92.62
2018-04-09T04:13:10.997Z,92.62
2018-04-09T04:14:17.883Z,93.39
2018-04-09T04:15:35.588Z,93.89
2018-04-09T04:16:53.217Z,93.85
2018-04-09T04:18:10.189Z,93.81
2018-04-09T04:19:28.263Z,92.73
2018-04-09T04:20:45.386Z,93.00
2018-04-09T04:21:51.343Z,93.48
2018-04-09T04:22:58.243Z,93.37
2018-04-09T04:24:05.068Z,93.57
2018-04-09T04:25:12.032Z,93.45
2018-04-09T04:26:18.187Z,93.06
2018-04-09T04:27:24.401Z,92.98
2018-04-09T04:28:30.787Z,92.73
2018-04-09T04:29:37.016Z,92.70
2018-04-09T04:30:44.086Z,92.52
2018-04-09T04:31:50.363Z,92.58
2018-04-09T04:32:56.640Z,92.76
2018-04-09T04:34:02.994Z,92.83
2018-04-09T04:35:10.024Z,92.64
2018-04-09T04:36:16.343Z,92.33
2018-04-09T04:37:22.703Z,92.87
2018-04-09T04:38:28.920Z,92.81
2018-04-09T04:39:35.135Z,94.74
2018-04-09T04:40:43.952Z,95.50
2018-04-09T04:41:54.588Z,95.52
2018-04-09T04:43:05.791Z,95.78
2018-04-09T04:44:12.068Z,95.37
2018-04-09T04:45:18.148Z,96.45
2018-04-09T04:46:24.335Z,95.98
2018-04-09T04:47:30.321Z,95.49
2018-04-09T04:48:36.592Z,95.35
2018-04-09T04:49:42.901Z,95.05
2018-04-09T04:50:49.139Z,94.59
2018-04-09T04:51:55.409Z,94.80
2018-04-09T04:53:02.237Z,94.87
2018-04-09T04:54:08.608Z,94.41
2018-04-09T04:55:14.991Z,93.74
2018-04-09T04:56:22.164Z,92.89
2018-04-09T04:57:28.345Z,93.05
2018-04-09T04:58:39.568Z,93.23
2018-04-09T04:59:45.849Z,93.52
2018-04-09T05:00:52.146Z,94.51
2018-04-09T05:01:58.923Z,94.87
2018-04-09T05:03:06.920Z,94.86
2018-04-09T05:04:13.167Z,95.82
2018-04-09T05:05:19.463Z,95.72
2018-04-09T05:06:25.734Z,95.63
2018-04-09T05:07:32.075Z,95.58
2018-04-09T05:08:38.636Z,95.50
2018-04-09T05:09:44.921Z,95.66
2018-04-09T05:10:51.217Z,95.33
2018-04-09T05:11:59.163Z,95.34
2018-04-09T05:13:05.330Z,95.38
2018-04-09T05:14:11.613Z,95.21
2018-04-09T05:15:17.885Z,94.56
2018-04-09T05:16:24.532Z,93.62
2018-04-09T05:17:30.796Z,93.74
2018-04-09T05:18:37.018Z,93.59
2018-04-09T05:19:43.222Z,93.87
2018-04-09T05:20:49.759Z,94.76
2018-04-09T05:21:55.952Z,94.66
2018-04-09T05:23:02.140Z,94.51
2018-04-09T05:24:08.986Z,94.66
2018-04-09T05:25:15.468Z,95.26
2018-04-09T05:26:21.742Z,95.62
2018-04-09T05:27:31.296Z,95.41
2018-04-09T05:28:37.781Z,95.32
2018-04-09T05:29:44.749Z,95.67
2018-04-09T05:30:50.988Z,95.92
2018-04-09T05:31:57.277Z,95.68
2018-04-09T05:33:03.359Z,95.37
2018-04-09T05:34:10.184Z,94.93
2018-04-09T05:35:16.683Z,94.35
2018-04-09T05:36:23.541Z,94.36
2018-04-09T05:37:30.663Z,94.49
2018-04-09T05:38:37.032Z,94.39
2018-04-09T05:39:43.944Z,94.08
2018-04-09T05:40:50.883Z,93.37
2018-04-09T05:41:57.538Z,93.59
2018-04-09T05:43:05.463Z,93.70
2018-04-09T05:44:12.297Z,93.86
2018-04-09T05:45:18.512Z,93.81
2018-04-09T05:46:24.984Z,94.20
2018-04-09T05:47:31.789Z,94.30
2018-04-09T05:48:38.115Z,94.03
2018-04-09T05:49:44.027Z,93.13
2018-04-09T05:50:50.563Z,92.19
2018-04-09T05:51:56.879Z,91.83
2018-04-09T05:53:03.167Z,91.61
2018-04-09T05:54:09.449Z,91.16
2018-04-09T05:55:15.839Z,90.81
2018-04-09T05:56:22.088Z,89.93
2018-04-09T05:57:28.905Z,89.67
2018-04-09T05:58:36.175Z,89.61
2018-04-09T05:59:43.340Z,89.72
2018-04-09T06:00:49.356Z,89.47
2018-04-09T06:01:55.732Z,89.82
2018-04-09T06:03:02.085Z,89.82
2018-04-09T06:04:08.267Z,89.91
2018-04-09T06:05:14.520Z,89.96
2018-04-09T06:06:20.822Z,90.23
2018-04-09T06:07:27.139Z,90.35
2018-04-09T06:08:34.051Z,91.20
2018-04-09T06:09:40.363Z,91.22
2018-04-09T06:10:46.583Z,92.03
2018-04-09T06:11:52.907Z,92.16
2018-04-09T06:12:59.228Z,91.79
2018-04-09T06:14:05.502Z,90.57
2018-04-09T06:15:11.737Z,90.44
2018-04-09T06:16:18.071Z,90.69
2018-04-09T06:17:24.346Z,91.18
2018-04-09T06:18:30.556Z,90.99
2018-04-09T06:19:36.926Z,90.82
2018-04-09T06:20:43.174Z,90.51
2018-04-09T06:21:50.178Z,90.35
2018-04-09T06:22:56.722Z,89.82
2018-04-09T06:24:03.028Z,88.65
2018-04-09T06:25:09.232Z,87.71
2018-04-09T06:26:15.561Z,88.01
2018-04-09T06:27:23.339Z,86.82
2018-04-09T06:28:29.376Z,86.48
2018-04-09T06:29:35.264Z,86.36
2018-04-09T06:30:42.019Z,86.06
2018-04-09T06:31:48.268Z,84.88
2018-04-09T06:32:54.668Z,85.40
2018-04-09T06:34:00.852Z,85.58
2018-04-09T06:35:07.108Z,85.65
2018-04-09T06:36:13.596Z,84.59
2018-04-09T06:37:19.813Z,84.93
2018-04-09T06:38:25.892Z,85.37
2018-04-09T06:39:32.190Z,85.22
2018-04-09T06:40:38.111Z,85.14
2018-04-09T06:41:44.226Z,85.20
2018-04-09T06:42:50.442Z,85.06
2018-04-09T06:43:56.501Z,85.66
2018-04-09T06:45:02.876Z,85.48
2018-04-09T06:46:08.928Z,85.51
2018-04-09T06:47:15.708Z,85.74
2018-04-09T06:48:22.104Z,86.19
2018-04-09T06:49:28.410Z,86.01
2018-04-09T06:50:36.369Z,85.96
2018-04-09T06:51:43.678Z,85.56
2018-04-09T06:52:50.033Z,85.79
2018-04-09T06:53:56.100Z,85.68
2018-04-09T06:55:02.421Z,85.90
2018-04-09T06:56:09.028Z,85.62
2018-04-09T06:57:15.384Z,85.96
2018-04-09T06:58:21.732Z,85.92
2018-04-09T06:59:27.973Z,85.82
2018-04-09T07:00:34.070Z,84.80
2018-04-09T07:01:40.396Z,84.17
2018-04-09T07:02:46.507Z,84.55
2018-04-09T07:03:52.926Z,84.93
2018-04-09T07:04:58.832Z,85.00
2018-04-09T07:06:05.015Z,84.95
2018-04-09T07:07:12.788Z,84.93
2018-04-09T07:08:19.690Z,84.93
2018-04-09T07:09:25.901Z,85.00
2018-04-09T07:10:32.251Z,84.60
2018-04-09T07:11:39.330Z,83.64
2018-04-09T07:12:45.519Z,83.97
2018-04-09T07:13:51.886Z,83.77
2018-04-09T07:14:58.219Z,83.56
2018-04-09T07:16:04.261Z,83.16
2018-04-09T07:17:10.502Z,83.47
2018-04-09T07:18:16.737Z,83.82
2018-04-09T07:19:22.782Z,83.32
2018-04-09T07:20:29.013Z,83.58
2018-04-09T07:21:35.225Z,83.95
2018-04-09T07:22:41.493Z,84.11
2018-04-09T07:23:47.728Z,83.66
2018-04-09T07:24:54.097Z,83.69
2018-04-09T07:26:00.362Z,83.04
2018-04-09T07:27:06.580Z,84.25
2018-04-09T07:28:12.835Z,85.29
2018-04-09T07:29:19.108Z,84.18
2018-04-09T07:30:25.313Z,83.06
2018-04-09T07:31:31.557Z,82.86
2018-04-09T07:32:37.651Z,82.25
2018-04-09T07:33:44.191Z,82.89
2018-04-09T07:34:50.504Z,82.49
2018-04-09T07:35:56.770Z,82.17
2018-04-09T07:37:03.648Z,81.86
2018-04-09T07:38:10.566Z,81.79
2018-04-09T07:39:16.852Z,80.36
2018-04-09T07:40:23.049Z,79.99
2018-04-09T07:41:29.221Z,80.53
2018-04-09T07:42:38.416Z,80.89
2018-04-09T07:43:45.639Z,80.66
2018-04-09T07:44:52.410Z,80.19
2018-04-09T07:45:58.712Z,79.88
2018-04-09T07:47:05.229Z,80.40
2018-04-09T07:48:11.524Z,79.99
2018-04-09T07:49:18.109Z,78.95
2018-04-09T07:50:26.239Z,79.26
2018-04-09T07:51:32.522Z,77.85
2018-04-09T07:52:38.816Z,77.61
2018-04-09T07:53:45.055Z,78.68
2018-04-09T07:54:51.352Z,77.68
2018-04-09T07:55:57.721Z,78.72
2018-04-09T07:57:03.992Z,78.36
2018-04-09T07:58:11.559Z,77.27
2018-04-09T07:59:18.824Z,78.33
2018-04-09T08:00:25.096Z,77.41
2018-04-09T08:01:31.343Z,77.63
2018-04-09T08:02:37.612Z,76.81
2018-04-09T08:03:43.913Z,75.95
2018-04-09T08:04:50.234Z,76.53
2018-04-09T08:05:56.524Z,75.71
2018-04-09T08:07:02.850Z,76.37
2018-04-09T08:08:09.189Z,74.95
2018-04-09T08:09:20.124Z,74.84
2018-04-09T08:10:28.509Z,73.46
2018-04-09T08:11:35.312Z,74.11
2018-04-09T08:12:41.585Z,73.69
2018-04-09T08:13:50.852Z,74.35
2018-04-09T08:14:57.390Z,74.09
2018-04-09T08:16:03.717Z,73.97
2018-04-09T08:17:10.449Z,73.94
2018-04-09T08:18:16.687Z,74.65
2018-04-09T08:19:22.978Z,73.23
2018-04-09T08:20:29.400Z,72.08
2018-04-09T08:21:35.721Z,72.00
2018-04-09T08:22:41.928Z,71.81
2018-04-09T08:23:48.131Z,72.64
2018-04-09T08:24:54.378Z,72.10
2018-04-09T08:26:00.775Z,70.97
2018-04-09T08:27:07.066Z,71.52
2018-04-09T08:28:13.286Z,71.48
2018-04-09T08:29:20.932Z,71.49
2018-04-09T08:30:30.095Z,70.33
2018-04-09T08:31:41.806Z,69.58
2018-04-09T08:32:48.708Z,70.24
2018-04-09T08:33:55.000Z,69.33
2018-04-09T08:35:01.308Z,69.43
2018-04-09T08:36:07.587Z,68.80
2018-04-09T08:37:13.892Z,69.58
2018-04-09T08:38:20.114Z,68.71
2018-04-09T08:39:26.451Z,68.75
2018-04-09T08:40:32.765Z,68.00
2018-04-09T08:41:39.166Z,68.20
2018-04-09T08:42:45.156Z,69.27
2018-04-09T08:43:51.392Z,68.29
2018-04-09T08:45:00.232Z,68.06
2018-04-09T08:46:06.492Z,67.86
2018-04-09T08:47:12.758Z,68.32
2018-04-09T08:48:18.971Z,67.64
2018-04-09T08:49:25.192Z,68.57
2018-04-09T08:50:31.436Z,68.52
2018-04-09T08:51:37.722Z,69.51
2018-04-09T08:52:44.025Z,67.99
2018-04-09T08:53:50.289Z,68.49
2018-04-09T08:54:56.568Z,67.50
2018-04-09T08:56:02.849Z,68.17
2018-04-09T08:57:08.828Z,67.15
2018-04-09T08:58:14.851Z,67.43
2018-04-09T08:59:20.860Z,67.27
2018-04-09T09:00:27.962Z,66.20
2018-04-09T09:01:34.962Z,67.81
2018-04-09T09:02:41.356Z,67.97
2018-04-09T09:03:47.664Z,69.37
2018-04-09T09:04:54.026Z,66.15
2018-04-09T09:06:00.297Z,66.85
2018-04-09T09:07:06.030Z,67.17
2018-04-09T09:08:12.265Z,66.07
2018-04-09T09:09:18.597Z,65.52
2018-04-09T09:10:24.840Z,63.90
2018-04-09T09:11:31.121Z,63.56
2018-04-09T09:12:37.416Z,64.62
2018-04-09T09:13:47.379Z,65.07
2018-04-09T09:14:58.356Z,64.54
2018-04-09T09:16:09.737Z,65.49
2018-04-09T09:17:16.544Z,65.63
2018-04-09T09:18:22.805Z,65.91
2018-04-09T09:19:29.014Z,64.46
2018-04-09T09:20:35.344Z,64.34
2018-04-09T09:21:41.651Z,64.20
2018-04-09T09:22:47.852Z,64.80
2018-04-09T09:23:53.922Z,64.40
2018-04-09T09:25:00.148Z,61.85
2018-04-09T09:26:06.400Z,62.36
2018-04-09T09:27:13.059Z,61.52
2018-04-09T09:28:19.293Z,62.82
2018-04-09T09:29:25.522Z,61.98
2018-04-09T09:30:31.817Z,62.33
2018-04-09T09:31:39.535Z,60.72
2018-04-09T09:32:46.280Z,59.98
2018-04-09T09:33:53.256Z,59.17
2018-04-09T09:34:59.499Z,58.87
2018-04-09T09:36:06.017Z,59.81
2018-04-09T09:37:12.207Z,60.82
2018-04-09T09:38:38.008Z,59.93
2018-04-09T09:39:44.212Z,58.49
2018-04-09T09:40:50.523Z,58.81
2018-04-09T09:41:56.820Z,58.87
2018-04-09T09:43:03.080Z,58.10
2018-04-09T09:44:10.041Z,59.08
2018-04-09T09:45:16.896Z,59.67
2018-04-09T09:46:23.130Z,60.28
2018-04-09T09:47:29.456Z,60.47
2018-04-09T09:48:35.753Z,59.85
2018-04-09T09:49:41.955Z,58.75
2018-04-09T09:50:48.167Z,56.72
2018-04-09T09:51:54.398Z,58.31
2018-04-09T09:53:00.757Z,57.02
2018-04-09T09:54:06.996Z,56.68
2018-04-09T09:55:15.760Z,56.60
2018-04-09T09:56:23.931Z,56.08
2018-04-09T09:57:30.215Z,56.09
2018-04-09T09:58:36.528Z,55.50
2018-04-09T09:59:42.745Z,54.41
2018-04-09T10:00:48.949Z,56.44
2018-04-09T10:01:54.979Z,55.26
2018-04-09T10:03:01.285Z,55.88
2018-04-09T10:04:07.617Z,54.99
2018-04-09T10:05:13.545Z,57.21
2018-04-09T10:06:19.815Z,54.81
2018-04-09T10:07:26.049Z,54.72
2018-04-09T10:08:32.617Z,53.57
2018-04-09T10:09:38.876Z,55.06
2018-04-09T10:10:45.141Z,54.49
2018-04-09T10:11:51.144Z,53.38
2018-04-09T10:12:57.191Z,54.25
2018-04-09T10:14:03.504Z,52.79
2018-04-09T10:15:09.771Z,52.89
2018-04-09T10:16:15.991Z,54.11
2018-04-09T10:17:22.238Z,52.84
2018-04-09T10:18:30.670Z,54.67
2018-04-09T10:19:38.312Z,53.07
2018-04-09T10:20:44.602Z,51.44
2018-04-09T10:21:50.852Z,52.81
2018-04-09T10:22:57.204Z,52.84
2018-04-09T10:24:03.423Z,52.29
2018-04-09T10:25:09.666Z,52.45
2018-04-09T10:26:15.887Z,53.63
2018-04-09T10:27:22.207Z,52.94
2018-04-09T10:28:28.489Z,52.16
2018-04-09T10:29:34.828Z,52.22
2018-04-09T10:30:41.129Z,52.68
2018-04-09T10:31:47.320Z,53.92
2018-04-09T10:32:53.436Z,53.12
2018-04-09T10:34:00.810Z,53.38
2018-04-09T10:35:08.710Z,54.87
2018-04-09T10:36:14.951Z,52.79
2018-04-09T10:37:25.862Z,51.78
2018-04-09T10:38:32.764Z,51.96
2018-04-09T10:39:38.972Z,51.01
2018-04-09T10:40:45.197Z,52.14
2018-04-09T10:41:51.401Z,51.92
2018-04-09T10:43:00.896Z,52.26
2018-04-09T10:44:07.121Z,51.10
2018-04-09T10:45:15.884Z,51.17
2018-04-09T10:46:22.179Z,52.14
2018-04-09T10:47:28.406Z,52.03
2018-04-09T10:48:35.324Z,51.78
2018-04-09T10:49:42.628Z,51.99
2018-04-09T10:50:49.008Z,51.24
2018-04-09T10:51:54.999Z,50.48
2018-04-09T10:53:01.977Z,48.25
2018-04-09T10:54:08.199Z,48.24
2018-04-09T10:55:14.422Z,49.26
2018-04-09T10:56:20.617Z,51.18
2018-04-09T10:57:26.866Z,48.69
2018-04-09T10:58:33.630Z,49.07
2018-04-09T10:59:40.412Z,49.42
2018-04-09T11:00:46.713Z,48.37
2018-04-09T11:01:53.009Z,47.56
2018-04-09T11:02:59.793Z,49.71
2018-04-09T11:04:06.045Z,46.82
2018-04-09T11:05:15.089Z,47.14
2018-04-09T11:06:23.127Z,47.78
2018-04-09T11:07:29.640Z,45.80
2018-04-09T11:08:36.239Z,45.70
2018-04-09T11:09:42.981Z,45.57
2018-04-09T11:10:49.482Z,47.62
2018-04-09T11:11:55.928Z,46.82
2018-04-09T11:13:02.187Z,45.10
2018-04-09T11:14:09.353Z,45.73
2018-04-09T11:15:15.798Z,46.04
2018-04-09T11:16:22.584Z,45.05
2018-04-09T11:17:28.722Z,45.44
2018-04-09T11:18:36.143Z,45.35
2018-04-09T11:19:42.960Z,46.35
2018-04-09T11:20:52.481Z,45.20
2018-04-09T11:21:58.859Z,45.90
2018-04-09T11:23:05.296Z,45.40
2018-04-09T11:24:11.545Z,46.70
2018-04-09T11:25:23.991Z,47.65
2018-04-09T11:26:30.492Z,46.94
2018-04-09T11:27:36.466Z,47.38
2018-04-09T11:28:42.666Z,44.84
2018-04-09T11:29:48.917Z,46.35
2018-04-09T11:30:55.105Z,45.21
2018-04-09T11:32:01.358Z,46.91
2018-04-09T11:33:07.308Z,46.99
2018-04-09T11:34:13.586Z,43.71
2018-04-09T11:35:19.872Z,44.77
2018-04-09T11:36:27.612Z,45.43
2018-04-09T11:37:33.794Z,44.26
2018-04-09T11:38:40.102Z,44.37
2018-04-09T11:39:47.566Z,44.70
2018-04-09T11:40:53.758Z,45.59
2018-04-09T11:42:00.707Z,44.15
2018-04-09T11:43:07.101Z,45.54
2018-04-09T11:44:13.544Z,44.48
2018-04-09T11:45:19.780Z,44.18
2018-04-09T11:46:26.192Z,44.63
2018-04-09T11:47:32.504Z,45.24
2018-04-09T11:48:38.984Z,45.50
2018-04-09T11:49:45.222Z,46.56
2018-04-09T11:50:51.524Z,45.27
2018-04-09T11:51:58.937Z,46.22
2018-04-09T11:53:06.174Z,45.78
2018-04-09T11:54:12.407Z,46.62
2018-04-09T11:55:18.711Z,46.77
2018-04-09T11:56:25.023Z,45.94
2018-04-09T11:57:31.232Z,46.24
2018-04-09T11:58:37.529Z,43.26
2018-04-09T11:59:43.754Z,45.66
2018-04-09T12:00:53.222Z,43.06
2018-04-09T12:01:59.417Z,42.53
2018-04-09T12:03:05.491Z,43.43
2018-04-09T12:04:11.968Z,43.42
2018-04-09T12:05:18.313Z,43.15
2018-04-09T12:06:24.629Z,42.70
2018-04-09T12:07:34.165Z,43.44
2018-04-09T12:08:42.011Z,43.68
2018-04-09T12:09:48.360Z,44.70
2018-04-09T12:10:54.653Z,44.09
2018-04-09T12:12:00.962Z,45.29
2018-04-09T12:13:07.173Z,45.80
2018-04-09T12:14:14.039Z,45.79
2018-04-09T12:15:20.478Z,46.22
2018-04-09T12:16:27.016Z,48.06
2018-04-09T12:17:33.264Z,45.83
2018-04-09T12:18:39.574Z,45.68
2018-04-09T12:19:46.678Z,46.73
2018-04-09T12:20:53.132Z,45.99
2018-04-09T12:21:59.434Z,47.72
2018-04-09T12:23:07.106Z,47.78
2018-04-09T12:24:17.802Z,48.54
2018-04-09T12:25:24.924Z,47.45
2018-04-09T12:26:31.203Z,46.33
2018-04-09T12:27:37.412Z,48.07
2018-04-09T12:28:43.625Z,47.88
2018-04-09T12:29:50.355Z,47.19
2018-04-09T12:30:56.451Z,47.71
2018-04-09T12:32:02.760Z,47.93
2018-04-09T12:33:08.782Z,47.52
2018-04-09T12:34:15.170Z,47.23
2018-04-09T12:35:21.422Z,46.97
2018-04-09T12:36:27.418Z,48.72
2018-04-09T12:37:33.819Z,48.53
2018-04-09T12:38:42.495Z,47.19
2018-04-09T12:39:50.683Z,47.48
2018-04-09T12:40:57.514Z,48.71
2018-04-09T12:42:03.957Z,46.74
2018-04-09T12:43:10.275Z,47.54
2018-04-09T12:44:16.529Z,47.23
2018-04-09T12:45:22.610Z,46.48
2018-04-09T12:46:30.582Z,47.20
2018-04-09T12:47:36.996Z,46.41
2018-04-09T12:48:43.308Z,46.02
2018-04-09T12:49:50.236Z,47.55
2018-04-09T12:50:56.519Z,45.78
2018-04-09T12:52:02.861Z,46.09
2018-04-09T12:53:09.736Z,46.55
2018-04-09T12:54:17.240Z,46.25
2018-04-09T12:55:24.750Z,45.78
2018-04-09T12:56:31.066Z,45.10
2018-04-09T12:57:37.951Z,45.00
2018-04-09T12:58:44.154Z,44.33
2018-04-09T12:59:50.507Z,44.52
2018-04-09T13:02:02.445Z,44.57
2018-04-09T13:03:09.397Z,46.28
2018-04-09T13:04:15.734Z,45.54
2018-04-09T13:05:22.718Z,44.90
2018-04-09T13:06:28.995Z,44.13
2018-04-09T13:07:35.317Z,42.82
2018-04-09T13:08:41.598Z,43.73
2018-04-09T13:09:48.534Z,43.36
2018-04-09T13:10:56.393Z,43.17
2018-04-09T13:12:02.893Z,43.16
2018-04-09T13:13:09.165Z,42.28
2018-04-09T13:14:15.405Z,43.37
2018-04-09T13:15:21.641Z,43.15
2018-04-09T13:16:27.913Z,42.89
2018-04-09T13:17:34.269Z,43.33
2018-04-09T13:18:40.571Z,42.13
2018-04-09T13:19:46.885Z,42.96
2018-04-09T13:20:53.185Z,43.46
2018-04-09T13:22:00.242Z,43.70
2018-04-09T13:23:06.514Z,43.39
2018-04-09T13:24:13.045Z,42.08
2018-04-09T13:25:19.226Z,43.05
2018-04-09T13:26:25.442Z,42.40
2018-04-09T13:27:31.677Z,43.28
2018-04-09T13:28:38.061Z,43.55
2018-04-09T13:29:44.285Z,41.89
2018-04-09T13:30:50.481Z,41.67
2018-04-09T13:31:56.701Z,41.87
2018-04-09T13:33:03.046Z,41.82
2018-04-09T13:34:09.346Z,41.53
2018-04-09T13:35:15.385Z,40.45
2018-04-09T13:36:21.303Z,39.92
2018-04-09T13:37:27.566Z,38.37
2018-04-09T13:38:33.854Z,38.68
2018-04-09T13:39:40.066Z,39.74
2018-04-09T13:40:46.290Z,39.61
2018-04-09T13:41:52.578Z,39.35
2018-04-09T13:42:58.820Z,40.40
2018-04-09T13:44:05.125Z,39.98
2018-04-09T13:45:18.692Z,40.21
2018-04-09T13:46:24.876Z,40.50
2018-04-09T13:47:31.142Z,40.27
2018-04-09T13:48:37.442Z,41.34
2018-04-09T13:49:43.745Z,42.37
2018-04-09T13:50:50.089Z,41.38
2018-04-09T13:51:56.569Z,42.13
2018-04-09T13:53:02.909Z,41.45
2018-04-09T13:54:09.700Z,41.74
2018-04-09T13:55:16.043Z,42.21
2018-04-09T13:56:22.298Z,42.79
2018-04-09T13:57:28.534Z,43.11
2018-04-09T13:58:34.874Z,43.05
2018-04-09T13:59:41.162Z,44.02
2018-04-09T14:00:47.502Z,43.62
2018-04-09T14:01:54.901Z,43.19
2018-04-09T14:03:01.507Z,42.57
2018-04-09T14:04:07.766Z,42.79
2018-04-09T14:05:14.048Z,43.12
2018-04-09T14:06:20.366Z,43.78
2018-04-09T14:07:26.697Z,44.66
2018-04-09T14:08:33.067Z,44.03
2018-04-09T14:09:39.310Z,45.50
2018-04-09T14:10:46.153Z,45.15
2018-04-09T14:11:52.550Z,44.81
2018-04-09T14:12:58.833Z,45.43
2018-04-09T14:14:04.731Z,44.90
2018-04-09T14:15:10.971Z,45.24
2018-04-09T14:16:17.949Z,44.86
2018-04-09T14:17:25.621Z,45.40
2018-04-09T14:18:33.693Z,46.05
2018-04-09T14:19:39.901Z,45.30
2018-04-09T14:20:46.215Z,46.63